Time;durP1;ratioP1;P1;durP2;ratioP2;P2;SDS_P1;SDS_P2;PMS_P1;PMS_P2;Temp;Humidity;BMP_temperature;BMP_pressure;BME280_temperature;BME280_humidity;BME280_pressure;Samples;Min_cycle;Max_cycle;Signal;HPM_P1;HPM_P2
2023/07/18 00:01:43;;;;;;;29.43;27.53;;;15.00;82.00;;;;;;4993291;28;20186;-73
2023/07/18 00:04:10;;;;;;;29.80;27.77;;;15.10;82.20;;;;;;4993333;28;20213;-75
2023/07/18 00:06:41;;;;;;;24.73;22.97;;;15.20;82.60;;;;;;4993445;28;20228;-73
2023/07/18 00:09:09;;;;;;;24.60;22.40;;;15.20;81.50;;;;;;4990185;28;20531;-71
2023/07/18 00:11:37;;;;;;;26.60;24.67;;;15.10;81.70;;;;;;4990342;28;20182;-67
2023/07/18 00:14:04;;;;;;;25.43;23.40;;;14.90;81.50;;;;;;4992898;28;20644;-75
2023/07/18 00:16:32;;;;;;;24.20;22.47;;;14.90;82.30;;;;;;4975828;28;20185;-68
2023/07/18 00:18:59;;;;;;;24.03;21.90;;;14.90;81.90;;;;;;4993246;28;20185;-73
2023/07/18 00:21:31;;;;;;;22.50;20.60;;;15.10;82.30;;;;;;4992896;28;20173;-67
2023/07/18 00:23:59;;;;;;;22.07;20.33;;;15.10;82.00;;;;;;4993243;28;20182;-71
2023/07/18 00:26:29;;;;;;;18.40;16.67;;;15.20;81.80;;;;;;4992953;28;20272;-72
2023/07/18 00:28:59;;;;;;;13.70;12.57;;;15.30;81.20;;;;;;4993065;28;20542;-71
2023/07/18 00:31:27;;;;;;;13.80;11.50;;;15.30;80.30;;;;;;4991620;28;20277;-71
2023/07/18 00:33:54;;;;;;;14.23;10.67;;;15.40;80.40;;;;;;4992083;28;20202;-74
2023/07/18 00:36:21;;;;;;;9.63;8.73;;;15.60;80.40;;;;;;4991557;28;20656;-73
2023/07/18 00:38:49;;;;;;;9.23;8.00;;;15.60;79.50;;;;;;4993104;28;20323;-74
2023/07/18 00:41:16;;;;;;;8.33;7.03;;;15.60;79.20;;;;;;4993052;28;20208;-75
2023/07/18 00:43:43;;;;;;;8.43;6.30;;;15.70;79.30;;;;;;4996609;28;20180;-74
2023/07/18 00:46:12;;;;;;;11.90;6.00;;;15.70;79.00;;;;;;4997609;28;20645;-71
2023/07/18 00:48:39;;;;;;;14.00;6.37;;;15.80;78.40;;;;;;4997341;28;20170;-68
2023/07/18 00:51:09;;;;;;;9.87;5.93;;;15.90;79.10;;;;;;4997025;28;20205;-70
2023/07/18 00:53:39;;;;;;;7.83;5.70;;;16.10;78.80;;;;;;4996673;28;20229;-69
2023/07/18 00:56:06;;;;;;;12.03;5.80;;;16.20;77.50;;;;;;4996652;28;20186;-74
2023/07/18 00:58:34;;;;;;;10.33;5.70;;;16.30;77.20;;;;;;4996823;28;20652;-68
2023/07/18 01:01:02;;;;;;;9.27;5.03;;;16.40;78.10;;;;;;4997343;28;20187;-65
2023/07/18 01:03:29;;;;;;;8.67;4.80;;;16.50;76.20;;;;;;4997002;28;20247;-65
2023/07/18 01:05:57;;;;;;;7.00;4.50;;;16.50;76.50;;;;;;4997120;28;20637;-66
2023/07/18 01:08:24;;;;;;;10.87;4.57;;;16.50;76.80;;;;;;4996824;28;20193;-66
2023/07/18 01:10:52;;;;;;;7.90;4.67;;;16.50;76.50;;;;;;4996524;28;20550;-66
2023/07/18 01:13:19;;;;;;;9.43;4.77;;;16.60;76.70;;;;;;4996620;28;20198;-64
2023/07/18 01:15:47;;;;;;;12.33;4.73;;;16.80;76.20;;;;;;4990577;28;20247;-66
2023/07/18 01:18:15;;;;;;;10.20;3.87;;;17.10;74.40;;;;;;4984455;28;20185;-66
2023/07/18 01:20:45;;;;;;;8.57;3.77;;;17.20;74.10;;;;;;4985382;28;20639;-65
2023/07/18 01:23:13;;;;;;;6.07;3.67;;;17.40;74.30;;;;;;4996731;28;20184;-66
2023/07/18 01:25:42;;;;;;;8.17;3.47;;;17.80;73.10;;;;;;4995943;28;20256;-70
2023/07/18 01:28:10;;;;;;;8.80;3.67;;;17.70;73.40;;;;;;4979499;28;20219;-65
2023/07/18 01:30:38;;;;;;;8.50;3.87;;;17.60;73.00;;;;;;4995963;28;20236;-67
2023/07/18 01:33:06;;;;;;;7.50;3.53;;;17.60;73.80;;;;;;4996712;28;20185;-65
2023/07/18 01:35:34;;;;;;;5.90;3.77;;;17.80;73.50;;;;;;4992013;28;20196;-69
2023/07/18 01:38:01;;;;;;;7.60;3.10;;;18.00;71.90;;;;;;4968484;28;20189;-65
2023/07/18 01:40:28;;;;;;;4.97;3.30;;;17.90;72.10;;;;;;4991643;28;20220;-66
2023/07/18 01:42:57;;;;;;;7.77;3.37;;;17.90;71.30;;;;;;4996293;28;20224;-65
2023/07/18 01:45:27;;;;;;;5.87;3.20;;;17.90;72.00;;;;;;4994509;28;20541;-65
2023/07/18 01:47:56;;;;;;;8.00;3.17;;;18.10;72.40;;;;;;4992063;28;20182;-65
2023/07/18 01:50:23;;;;;;;8.53;3.27;;;18.30;71.20;;;;;;4982775;28;20189;-67
2023/07/18 01:52:51;;;;;;;6.93;3.30;;;18.30;70.40;;;;;;4980414;28;20268;-65
2023/07/18 01:55:19;;;;;;;7.13;3.07;;;18.30;70.50;;;;;;4992178;28;20355;-64
2023/07/18 01:57:48;;;;;;;10.97;2.97;;;18.30;70.50;;;;;;4991240;28;20190;-65
2023/07/18 02:00:18;;;;;;;8.17;3.00;;;18.70;70.10;;;;;;4986251;28;20279;-77
2023/07/18 02:02:48;;;;;;;8.83;2.70;;;18.90;68.60;;;;;;4995468;28;20193;-65
2023/07/18 02:05:18;;;;;;;6.70;2.53;;;19.00;67.30;;;;;;4995674;28;20185;-64
2023/07/18 02:07:46;;;;;;;6.50;2.40;;;19.10;67.30;;;;;;4995943;28;20264;-66
2023/07/18 02:10:16;;;;;;;6.03;2.10;;;19.20;66.10;;;;;;4995049;28;20644;-65
2023/07/18 02:12:44;;;;;;;8.10;2.53;;;19.30;65.60;;;;;;4994349;28;20190;-65
2023/07/18 02:15:15;;;;;;;3.60;1.67;;;19.50;63.70;;;;;;4987340;28;20321;-67
2023/07/18 02:17:43;;;;;;;4.53;1.50;;;19.50;63.70;;;;;;4993182;28;20601;-67
2023/07/18 02:20:11;;;;;;;3.27;1.50;;;19.60;62.80;;;;;;4995791;28;20268;-65
2023/07/18 02:22:41;;;;;;;3.40;2.00;;;19.60;62.30;;;;;;4995700;28;20182;-65
2023/07/18 02:25:09;;;;;;;6.07;2.40;;;19.60;61.70;;;;;;4977914;28;20528;-65
2023/07/18 02:27:39;;;;;;;2.77;1.70;;;19.90;61.10;;;;;;4995307;28;20224;-66
2023/07/18 02:30:11;;;;;;;4.23;1.60;;;20.30;60.10;;;;;;4995216;28;20229;-66
2023/07/18 02:32:39;;;;;;;8.83;2.00;;;20.30;59.50;;;;;;4995292;28;20434;-65
2023/07/18 02:35:08;;;;;;;3.67;1.67;;;20.40;59.00;;;;;;4995591;28;20216;-65
2023/07/18 02:37:36;;;;;;;6.43;1.80;;;20.40;57.40;;;;;;4995116;28;20236;-65
2023/07/18 02:40:09;;;;;;;8.77;1.83;;;20.40;57.80;;;;;;4994974;28;20210;-65
2023/07/18 02:42:38;;;;;;;10.83;2.10;;;20.70;56.70;;;;;;4995321;28;20170;-65
2023/07/18 02:45:08;;;;;;;4.07;1.60;;;20.80;57.20;;;;;;4992258;28;20182;-65
2023/07/18 02:47:36;;;;;;;4.70;1.77;;;20.90;55.90;;;;;;4988344;28;20225;-65
2023/07/18 02:50:03;;;;;;;5.90;1.70;;;21.10;55.10;;;;;;4987671;28;20269;-64
2023/07/18 02:52:31;;;;;;;5.53;1.50;;;21.30;53.90;;;;;;4994484;28;20612;-66
2023/07/18 02:54:58;;;;;;;7.17;1.50;;;21.40;53.70;;;;;;4994937;28;20206;-67
2023/07/18 02:57:26;;;;;;;5.80;1.93;;;21.60;51.70;;;;;;4994085;28;20244;-65
2023/07/18 02:59:53;;;;;;;3.63;1.67;;;21.60;52.10;;;;;;4983969;28;20206;-64
2023/07/18 03:02:20;;;;;;;5.67;1.83;;;21.80;53.00;;;;;;4983936;28;20221;-65
2023/07/18 03:04:48;;;;;;;6.47;2.40;;;21.80;51.60;;;;;;4994917;28;20289;-65
2023/07/18 03:07:17;;;;;;;11.77;2.20;;;21.80;51.10;;;;;;4995005;28;20177;-65
2023/07/18 03:09:45;;;;;;;6.37;1.97;;;21.60;51.40;;;;;;4994396;28;20260;-65
2023/07/18 03:12:12;;;;;;;3.23;1.57;;;21.70;50.20;;;;;;4990504;28;20252;-64
2023/07/18 03:14:40;;;;;;;5.67;2.23;;;21.60;50.80;;;;;;4984626;28;20256;-65
2023/07/18 03:17:07;;;;;;;6.37;1.80;;;21.70;50.80;;;;;;4986527;28;20179;-65
2023/07/18 03:19:35;;;;;;;3.30;1.43;;;21.80;50.30;;;;;;4983044;28;20202;-65
2023/07/18 03:22:02;;;;;;;6.10;2.17;;;21.90;49.80;;;;;;4993051;28;20663;-68
2023/07/18 03:24:30;;;;;;;4.63;1.47;;;22.00;50.00;;;;;;4966146;28;20190;-65
2023/07/18 03:26:57;;;;;;;3.43;1.80;;;22.10;48.50;;;;;;4984738;28;20178;-71
2023/07/18 03:29:24;;;;;;;3.10;1.43;;;22.40;48.50;;;;;;4988104;28;20185;-65
2023/07/18 03:31:52;;;;;;;4.23;1.63;;;22.60;47.00;;;;;;4992693;28;20229;-67
2023/07/18 03:34:19;;;;;;;2.77;1.43;;;22.30;47.60;;;;;;4983337;28;20221;-68
2023/07/18 03:36:47;;;;;;;5.87;1.70;;;22.70;45.90;;;;;;4983333;28;20261;-66
2023/07/18 03:39:15;;;;;;;2.40;1.37;;;22.80;45.80;;;;;;4985446;28;20194;-65
2023/07/18 03:41:43;;;;;;;4.07;1.70;;;22.80;45.40;;;;;;4984454;28;20197;-67
2023/07/18 03:44:11;;;;;;;3.53;1.40;;;23.10;42.80;;;;;;4982259;28;20316;-65
2023/07/18 03:46:38;;;;;;;2.77;1.30;;;23.30;42.20;;;;;;4982557;28;21460;-65
2023/07/18 03:49:05;;;;;;;3.13;1.50;;;23.60;40.50;;;;;;4984765;28;20170;-72
2023/07/18 03:51:33;;;;;;;3.77;1.53;;;23.70;41.00;;;;;;4986773;28;20185;-66
2023/07/18 03:54:01;;;;;;;3.50;1.70;;;24.00;42.30;;;;;;4986487;28;20229;-64
2023/07/18 03:56:30;;;;;;;4.17;1.73;;;24.00;42.70;;;;;;4990569;28;20265;-67
2023/07/18 03:58:58;;;;;;;3.50;1.40;;;24.10;42.70;;;;;;4991779;28;20233;-65
2023/07/18 04:01:25;;;;;;;3.83;1.53;;;24.00;42.80;;;;;;4989650;28;20636;-65
2023/07/18 04:03:53;;;;;;;3.80;1.50;;;24.30;42.30;;;;;;4984882;28;20182;-65
2023/07/18 04:06:20;;;;;;;5.60;1.63;;;24.20;41.70;;;;;;4991376;28;20645;-66
2023/07/18 04:08:47;;;;;;;5.50;1.60;;;24.00;40.20;;;;;;4982488;28;20193;-65
2023/07/18 04:11:14;;;;;;;3.50;1.50;;;23.90;41.20;;;;;;4986645;28;20178;-65
2023/07/18 04:13:42;;;;;;;2.77;1.63;;;24.00;41.50;;;;;;4987613;28;20206;-67
2023/07/18 04:16:09;;;;;;;4.77;1.50;;;24.30;40.60;;;;;;4968424;28;20193;-65
2023/07/18 04:18:36;;;;;;;3.87;1.77;;;24.80;40.00;;;;;;4983776;28;20198;-66
2023/07/18 04:21:04;;;;;;;3.67;1.33;;;24.90;39.30;;;;;;4993132;28;20185;-72
2023/07/18 04:23:32;;;;;;;4.93;1.47;;;24.90;37.80;;;;;;4988231;28;20225;-70
2023/07/18 04:26:01;;;;;;;2.90;1.30;;;24.60;37.80;;;;;;4990189;28;20196;-73
2023/07/18 04:28:29;;;;;;;4.43;1.57;;;24.90;37.70;;;;;;4992974;28;20656;-73
2023/07/18 04:30:57;;;;;;;5.60;1.60;;;25.30;37.00;;;;;;4992736;28;20245;-75
2023/07/18 04:33:25;;;;;;;3.43;1.60;;;25.30;37.00;;;;;;4992415;28;20646;-75
2023/07/18 04:35:52;;;;;;;3.47;1.47;;;25.40;35.70;;;;;;4992518;28;20637;-72
2023/07/18 04:38:19;;;;;;;4.67;1.53;;;25.10;36.80;;;;;;4990874;28;20193;-73
2023/07/18 04:40:47;;;;;;;3.53;1.37;;;25.10;37.00;;;;;;4991961;28;20545;-75
2023/07/18 04:43:14;;;;;;;2.97;1.33;;;25.30;36.70;;;;;;4973964;28;20198;-74
2023/07/18 04:45:44;;;;;;;3.40;1.70;;;25.50;35.30;;;;;;4974903;28;20632;-74
2023/07/18 04:48:13;;;;;;;5.13;1.30;;;25.10;35.40;;;;;;4992199;28;20296;-77
2023/07/18 04:50:42;;;;;;;2.13;1.27;;;25.00;36.00;;;;;;4988185;28;20221;-74
2023/07/18 04:53:11;;;;;;;2.63;1.20;;;25.00;35.00;;;;;;4985633;28;20287;-75
2023/07/18 04:55:39;;;;;;;4.97;1.30;;;25.10;35.10;;;;;;4987297;28;20218;-72
2023/07/18 04:58:08;;;;;;;3.73;1.30;;;25.30;35.10;;;;;;4988730;28;20182;-72
2023/07/18 05:00:36;;;;;;;2.33;1.40;;;25.30;33.70;;;;;;4988658;28;20192;-78
2023/07/18 05:03:05;;;;;;;3.30;1.57;;;25.30;33.00;;;;;;4990991;28;20186;-74
2023/07/18 05:05:32;;;;;;;2.53;1.17;;;25.20;33.00;;;;;;4992018;28;20193;-72
2023/07/18 05:08:03;;;;;;;2.93;1.40;;;25.40;32.70;;;;;;4990121;28;20190;-76
2023/07/18 05:10:30;;;;;;;1.90;1.27;;;25.40;32.30;;;;;;4990807;28;20190;-78
2023/07/18 05:12:58;;;;;;;3.07;1.37;;;25.60;32.50;;;;;;4991692;28;20194;-70
2023/07/18 05:15:25;;;;;;;1.73;1.20;;;25.70;31.40;;;;;;4973012;28;20221;-71
2023/07/18 05:17:52;;;;;;;3.10;1.10;;;25.30;30.10;;;;;;4989702;28;20182;-73
2023/07/18 05:20:20;;;;;;;2.13;1.10;;;25.00;30.10;;;;;;4989572;28;20193;-74
2023/07/18 05:22:47;;;;;;;1.63;0.80;;;25.30;29.80;;;;;;4989818;28;20598;-77
2023/07/18 05:25:17;;;;;;;2.33;0.80;;;25.10;27.40;;;;;;4979250;28;20183;-79
2023/07/18 05:27:44;;;;;;;2.20;1.23;;;24.90;26.40;;;;;;4989113;28;20190;-76
2023/07/18 05:30:14;;;;;;;2.83;1.00;;;24.40;26.40;;;;;;4993137;28;20226;-79
2023/07/18 05:32:42;;;;;;;1.53;1.10;;;24.70;27.70;;;;;;4995340;28;20237;-75
2023/07/18 05:35:11;;;;;;;1.90;0.80;;;24.70;26.40;;;;;;4993049;28;20280;-75
2023/07/18 05:37:39;;;;;;;3.13;0.83;;;24.30;25.60;;;;;;4994976;28;20272;-77
2023/07/18 05:40:10;;;;;;;1.17;0.90;;;23.30;26.10;;;;;;4993388;28;20197;-78
2023/07/18 05:42:38;;;;;;;1.80;0.90;;;23.00;27.30;;;;;;4991944;28;20178;-79
2023/07/18 05:45:07;;;;;;;1.43;0.80;;;23.30;26.70;;;;;;4994549;28;20186;-79
2023/07/18 05:47:35;;;;;;;1.10;0.90;;;24.00;25.60;;;;;;4992283;28;20268;-76
2023/07/18 05:50:04;;;;;;;1.40;0.90;;;24.00;25.30;;;;;;4993771;28;20582;-73
2023/07/18 05:52:32;;;;;;;1.10;0.70;;;24.50;24.60;;;;;;4994105;28;20717;-77
2023/07/18 05:55:00;;;;;;;0.97;0.80;;;24.30;24.70;;;;;;4993674;28;20656;-76
2023/07/18 05:57:27;;;;;;;2.40;1.10;;;24.70;24.50;;;;;;4993486;28;20312;-75
2023/07/18 05:59:54;;;;;;;1.70;1.03;;;24.60;24.60;;;;;;4994654;28;20255;-72
2023/07/18 06:02:22;;;;;;;1.40;0.87;;;25.10;24.70;;;;;;4988627;28;20186;-74
2023/07/18 06:04:50;;;;;;;1.53;0.80;;;25.20;24.50;;;;;;4995407;28;20182;-73
2023/07/18 06:07:17;;;;;;;1.13;0.93;;;24.80;25.00;;;;;;4992942;28;20189;-77
2023/07/18 06:09:45;;;;;;;1.93;0.90;;;24.20;25.60;;;;;;4991259;28;20523;-72
2023/07/18 06:12:13;;;;;;;1.70;0.97;;;23.80;25.90;;;;;;4993618;28;20589;-71
2023/07/18 06:14:40;;;;;;;1.20;1.10;;;23.60;26.30;;;;;;4990157;28;20560;-70
2023/07/18 06:17:08;;;;;;;3.13;0.90;;;23.70;26.40;;;;;;4978677;28;20185;-66
2023/07/18 06:19:35;;;;;;;2.23;1.00;;;23.00;27.80;;;;;;4992793;28;20178;-68
2023/07/18 06:22:03;;;;;;;2.07;1.23;;;22.60;29.80;;;;;;4993823;28;20619;-67
2023/07/18 06:24:30;;;;;;;2.53;1.53;;;22.40;31.20;;;;;;4994352;28;20174;-69
2023/07/18 06:27:00;;;;;;;1.40;1.13;;;22.40;31.60;;;;;;4993195;28;20232;-69
2023/07/18 06:29:28;;;;;;;1.63;1.00;;;21.80;32.50;;;;;;4993557;28;20201;-67
2023/07/18 06:32:00;;;;;;;2.93;1.70;;;21.40;33.10;;;;;;4994305;28;20257;-66
2023/07/18 06:34:30;;;;;;;2.47;1.13;;;21.20;33.60;;;;;;4993670;28;20538;-70
2023/07/18 06:37:02;;;;;;;2.30;1.40;;;21.00;34.00;;;;;;4988406;28;20176;-68
2023/07/18 06:39:29;;;;;;;2.67;1.70;;;20.90;34.10;;;;;;4992817;28;20237;-65
2023/07/18 06:41:58;;;;;;;5.37;1.47;;;20.80;34.80;;;;;;4993583;28;20227;-68
2023/07/18 06:44:25;;;;;;;3.83;1.40;;;20.80;34.90;;;;;;4989980;28;20536;-65
2023/07/18 06:46:53;;;;;;;2.47;1.57;;;20.70;34.80;;;;;;4991017;28;20520;-67
2023/07/18 06:49:21;;;;;;;4.77;1.47;;;20.60;35.00;;;;;;4993638;28;20648;-69
2023/07/18 06:51:49;;;;;;;1.67;1.47;;;20.50;34.60;;;;;;4989060;28;20197;-65
2023/07/18 06:54:17;;;;;;;3.93;1.80;;;20.40;34.80;;;;;;4988706;28;20572;-78
2023/07/18 06:56:45;;;;;;;5.17;1.63;;;20.40;34.80;;;;;;4981008;28;20204;-71
2023/07/18 06:59:13;;;;;;;5.57;1.73;;;20.30;34.90;;;;;;4970427;28;20198;-76
2023/07/18 07:01:42;;;;;;;2.97;1.90;;;20.30;35.30;;;;;;4985475;28;20234;-68
2023/07/18 07:04:10;;;;;;;3.53;1.87;;;20.20;35.10;;;;;;4982102;28;20181;-75
2023/07/18 07:06:41;;;;;;;2.87;1.70;;;20.10;34.80;;;;;;4974570;28;20213;-67
2023/07/18 07:09:13;;;;;;;6.37;1.77;;;20.00;35.20;;;;;;4993083;28;20662;-74
2023/07/18 07:11:41;;;;;;;5.63;1.30;;;19.90;34.80;;;;;;4992826;28;20186;-74
2023/07/18 07:14:11;;;;;;;3.83;1.43;;;19.90;35.20;;;;;;4993251;28;20556;-74
2023/07/18 07:16:39;;;;;;;4.00;1.90;;;19.80;35.80;;;;;;4990913;28;20644;-71
2023/07/18 07:19:06;;;;;;;4.10;2.33;;;19.80;36.20;;;;;;4992656;28;20186;-72
2023/07/18 07:21:34;;;;;;;2.43;1.47;;;19.70;35.80;;;;;;4992211;28;20549;-66
2023/07/18 07:24:02;;;;;;;5.50;2.23;;;19.70;36.20;;;;;;4993390;28;20284;-68
2023/07/18 07:26:30;;;;;;;4.63;1.93;;;19.60;36.70;;;;;;4993070;28;20272;-67
2023/07/18 07:28:57;;;;;;;4.03;2.07;;;19.60;37.00;;;;;;4990098;28;20276;-72
2023/07/18 07:31:25;;;;;;;3.73;1.97;;;19.50;37.20;;;;;;4993693;28;20226;-70
2023/07/18 07:33:53;;;;;;;2.67;1.80;;;19.40;37.40;;;;;;4986013;28;20743;-69
2023/07/18 07:36:20;;;;;;;7.20;2.10;;;19.30;37.50;;;;;;4992699;28;20182;-68
2023/07/18 07:38:48;;;;;;;3.30;1.63;;;19.20;37.70;;;;;;4983212;28;20591;-67
2023/07/18 07:41:16;;;;;;;3.60;1.80;;;19.20;38.10;;;;;;4991520;28;20186;-74
2023/07/18 07:43:43;;;;;;;4.63;1.80;;;19.00;38.80;;;;;;5001713;28;20667;-71
2023/07/18 07:46:10;;;;;;;4.07;1.83;;;18.90;39.50;;;;;;5003754;28;20201;-73
2023/07/18 07:48:41;;;;;;;2.80;1.77;;;18.80;39.60;;;;;;5002379;28;20178;-71
2023/07/18 07:51:08;;;;;;;1.97;1.70;;;18.70;39.30;;;;;;4993479;28;20170;-67
2023/07/18 07:53:35;;;;;;;8.27;1.90;;;18.50;39.60;;;;;;5000182;28;20182;-68
2023/07/18 07:56:03;;;;;;;3.47;1.90;;;18.40;40.10;;;;;;4998971;28;20712;-73
2023/07/18 07:58:30;;;;;;;8.03;2.17;;;18.30;40.30;;;;;;4993851;28;20193;-70
2023/07/18 08:00:57;;;;;;;3.60;1.70;;;18.20;40.20;;;;;;4994720;28;20551;-66
2023/07/18 08:03:25;;;;;;;2.63;1.90;;;18.20;39.60;;;;;;4992599;28;20186;-68
2023/07/18 08:05:55;;;;;;;3.37;1.90;;;18.20;40.20;;;;;;4993493;28;20224;-67
2023/07/18 08:08:24;;;;;;;3.57;1.90;;;18.10;40.70;;;;;;4992545;28;20269;-67
2023/07/18 08:10:54;;;;;;;4.90;2.20;;;18.00;40.50;;;;;;4993710;28;20190;-66
2023/07/18 08:13:21;;;;;;;5.20;2.40;;;17.80;40.90;;;;;;4991049;28;20240;-67
2023/07/18 08:15:50;;;;;;;3.40;1.90;;;17.80;41.40;;;;;;4993189;28;20190;-71
2023/07/18 08:18:17;;;;;;;3.70;2.07;;;17.70;40.40;;;;;;4992439;28;20189;-72
2023/07/18 08:20:45;;;;;;;4.83;2.33;;;17.70;41.80;;;;;;4992573;28;20181;-68
2023/07/18 08:23:13;;;;;;;11.47;2.33;;;17.60;41.90;;;;;;4988166;28;20178;-69
2023/07/18 08:25:45;;;;;;;5.67;2.40;;;17.50;42.80;;;;;;4993901;28;20304;-73
2023/07/18 08:28:13;;;;;;;3.20;1.90;;;17.30;43.30;;;;;;4992990;28;20184;-68
2023/07/18 08:30:41;;;;;;;3.47;1.87;;;17.20;42.60;;;;;;4993562;28;20236;-71
2023/07/18 08:33:11;;;;;;;9.50;2.97;;;17.20;42.90;;;;;;4991547;28;20188;-66
2023/07/18 08:35:39;;;;;;;4.50;2.10;;;17.10;42.50;;;;;;4992458;28;20220;-67
2023/07/18 08:38:08;;;;;;;5.70;2.20;;;17.00;42.80;;;;;;4980967;28;20196;-67
2023/07/18 08:40:35;;;;;;;5.33;2.43;;;17.10;42.60;;;;;;4993242;28;20186;-66
2023/07/18 08:43:03;;;;;;;5.63;2.47;;;17.00;42.70;;;;;;4991346;28;20189;-65
2023/07/18 08:45:37;;;;;;;6.30;2.80;;;17.00;42.40;;;;;;4992206;28;20181;-65
2023/07/18 08:48:04;;;;;;;7.50;3.37;;;17.00;43.70;;;;;;4985180;28;20197;-65
2023/07/18 08:50:33;;;;;;;6.73;3.50;;;17.00;43.50;;;;;;4988900;28;20202;-66
2023/07/18 08:53:01;;;;;;;7.37;3.73;;;17.00;43.10;;;;;;4993104;28;20269;-66
2023/07/18 08:55:29;;;;;;;8.00;3.50;;;16.90;43.20;;;;;;4992957;28;20206;-65
2023/07/18 08:57:57;;;;;;;9.03;3.90;;;16.80;43.40;;;;;;4990658;28;20181;-67
2023/07/18 09:00:25;;;;;;;5.90;3.43;;;16.80;42.80;;;;;;4986125;28;20178;-67
2023/07/18 09:02:52;;;;;;;6.60;3.67;;;16.80;43.00;;;;;;4991660;28;20191;-67
2023/07/18 09:05:35;;;;;;;4.57;3.17;;;16.70;42.90;;;;;;4994886;28;20211;-69
2023/07/18 09:08:05;;;;;;;7.50;3.50;;;16.60;43.20;;;;;;4989123;28;20192;-65
2023/07/18 09:10:33;;;;;;;6.00;2.77;;;16.60;43.90;;;;;;4995730;28;20248;-69
2023/07/18 09:13:09;;;;;;;6.73;3.60;;;16.50;43.70;;;;;;4994199;28;20190;-75
2023/07/18 09:15:37;;;;;;;6.13;3.50;;;16.50;44.20;;;;;;4995595;28;20221;-72
2023/07/18 09:18:07;;;;;;;7.97;3.27;;;16.50;44.50;;;;;;4996498;28;20245;-70
2023/07/18 09:20:35;;;;;;;6.47;3.73;;;16.50;44.60;;;;;;4994237;28;20196;-66
2023/07/18 09:23:04;;;;;;;9.30;5.03;;;16.40;44.70;;;;;;4991115;28;20184;-75
2023/07/18 09:25:38;;;;;;;9.93;4.80;;;16.30;45.20;;;;;;5005456;28;20338;-75
2023/07/18 09:28:08;;;;;;;7.20;4.20;;;16.20;44.50;;;;;;5002929;28;20188;-74
2023/07/18 09:30:36;;;;;;;6.70;3.73;;;16.20;44.30;;;;;;4985965;28;20225;-71
2023/07/18 09:33:07;;;;;;;6.17;4.60;;;16.10;44.90;;;;;;4996196;28;20190;-67
2023/07/18 09:35:40;;;;;;;7.47;3.83;;;16.10;44.70;;;;;;4994379;28;20223;-69
2023/07/18 09:38:07;;;;;;;7.40;4.43;;;16.00;43.90;;;;;;4994907;28;20205;-73
2023/07/18 09:40:39;;;;;;;7.07;4.80;;;16.10;46.70;;;;;;4991664;28;20210;-77
2023/07/18 09:43:07;;;;;;;7.50;4.53;;;16.00;46.20;;;;;;4994464;28;20193;-75
2023/07/18 09:45:35;;;;;;;10.67;4.67;;;16.00;46.70;;;;;;4992276;28;20272;-66
2023/07/18 09:48:07;;;;;;;10.67;4.73;;;15.90;47.30;;;;;;4975495;28;20178;-72
2023/07/18 09:50:35;;;;;;;6.40;4.23;;;15.80;47.90;;;;;;4988990;28;20624;-70
2023/07/18 09:53:09;;;;;;;8.93;4.33;;;15.80;46.40;;;;;;4990332;28;20183;-68
2023/07/18 09:55:38;;;;;;;11.17;4.17;;;15.80;46.00;;;;;;4989264;28;20631;-71
2023/07/18 09:58:09;;;;;;;10.43;3.73;;;15.90;44.40;;;;;;4995574;28;20178;-69
2023/07/18 10:00:37;;;;;;;8.93;4.20;;;15.80;44.40;;;;;;4994537;28;20181;-69
2023/07/18 10:03:05;;;;;;;10.23;3.67;;;15.80;43.70;;;;;;4993452;28;20186;-71
2023/07/18 10:05:35;;;;;;;8.30;4.30;;;15.70;44.00;;;;;;4995296;28;20257;-75
2023/07/18 10:08:07;;;;;;;5.97;3.50;;;15.70;45.00;;;;;;4995530;28;20585;-75
2023/07/18 10:10:34;;;;;;;8.73;3.50;;;15.50;45.40;;;;;;4995446;28;20183;-75
2023/07/18 10:13:02;;;;;;;7.23;3.57;;;15.50;46.70;;;;;;4990890;28;20199;-71
2023/07/18 10:15:30;;;;;;;5.97;3.43;;;15.40;47.90;;;;;;4987837;28;20316;-73
2023/07/18 10:18:16;;;;;;;11.03;3.60;;;15.30;48.20;;;;;;4977522;28;20278;-74
2023/07/18 10:21:04;;;;;;;6.47;2.90;;;15.30;48.80;;;;;;4984685;28;20182;-74
2023/07/18 10:23:43;;;;;;;5.47;3.30;;;15.30;49.00;;;;;;4988468;28;20242;-67
2023/07/18 10:26:13;;;;;;;10.67;3.63;;;15.20;50.30;;;;;;4988443;28;20519;-72
2023/07/18 10:28:45;;;;;;;6.50;3.57;;;15.20;49.50;;;;;;4994131;28;20190;-66
2023/07/18 10:31:30;;;;;;;8.00;3.43;;;15.20;49.80;;;;;;4992306;28;20232;-74
2023/07/18 10:34:16;;;;;;;9.33;4.00;;;15.10;48.70;;;;;;4968857;28;20210;-65
2023/07/18 10:36:59;;;;;;;8.03;3.50;;;15.10;49.50;;;;;;4988830;28;20186;-70
2023/07/18 10:39:50;;;;;;;5.87;3.80;;;15.00;50.70;;;;;;4990466;28;20189;-74
2023/07/18 10:42:21;;;;;;;8.70;3.50;;;14.90;51.50;;;;;;4993823;28;20277;-69
2023/07/18 10:44:49;;;;;;;6.40;3.60;;;14.90;51.70;;;;;;4985085;28;20197;-72
2023/07/18 10:47:18;;;;;;;7.17;3.87;;;14.80;51.80;;;;;;4975304;28;20174;-75
2023/07/18 10:49:49;;;;;;;6.07;3.47;;;14.80;51.60;;;;;;4994412;28;20205;-75
2023/07/18 10:52:19;;;;;;;6.37;3.30;;;14.70;51.10;;;;;;4990897;28;20185;-75
2023/07/18 10:54:56;;;;;;;7.37;3.70;;;14.70;52.50;;;;;;4985793;28;20232;-72
2023/07/18 10:57:29;;;;;;;8.63;3.97;;;14.70;52.40;;;;;;4992604;28;20227;-70
2023/07/18 10:59:59;;;;;;;9.37;3.53;;;14.70;52.80;;;;;;4991325;28;20199;-70
2023/07/18 11:02:30;;;;;;;4.97;3.07;;;14.70;52.30;;;;;;4994427;28;20174;-69
2023/07/18 11:04:58;;;;;;;8.80;3.57;;;14.60;52.70;;;;;;4993427;28;20186;-75
2023/07/18 11:07:34;;;;;;;6.07;3.70;;;14.50;52.60;;;;;;4990290;28;20186;-68
2023/07/18 11:10:03;;;;;;;6.20;3.27;;;14.50;52.20;;;;;;4991896;28;20175;-72
2023/07/18 11:12:33;;;;;;;8.23;3.00;;;14.50;52.80;;;;;;4987189;28;20258;-67
2023/07/18 11:15:02;;;;;;;7.23;3.73;;;14.40;52.50;;;;;;4990131;28;20214;-70
2023/07/18 11:17:31;;;;;;;8.93;3.90;;;14.50;53.80;;;;;;4993704;28;20178;-68
2023/07/18 11:19:59;;;;;;;6.17;2.90;;;14.50;53.20;;;;;;4993469;28;20318;-72
2023/07/18 11:22:29;;;;;;;8.67;3.33;;;14.50;54.00;;;;;;4975534;28;20192;-71
2023/07/18 11:24:57;;;;;;;5.33;2.87;;;14.50;53.10;;;;;;4992461;28;20182;-72
2023/07/18 11:27:26;;;;;;;8.40;3.80;;;14.70;53.50;;;;;;4993232;28;20607;-67
2023/07/18 11:30:09;;;;;;;7.00;3.23;;;14.60;53.40;;;;;;4986223;28;20729;-73
2023/07/18 11:32:40;;;;;;;7.53;3.77;;;14.60;53.50;;;;;;4990883;28;20664;-69
2023/07/18 11:35:18;;;;;;;6.63;3.60;;;14.60;52.80;;;;;;4990985;28;20226;-73
2023/07/18 11:37:50;;;;;;;8.80;3.53;;;14.50;52.70;;;;;;4987160;28;20209;-75
2023/07/18 11:40:29;;;;;;;8.17;3.70;;;14.40;52.90;;;;;;4991861;28;20225;-70
2023/07/18 11:43:00;;;;;;;6.83;3.57;;;14.40;51.90;;;;;;4992527;28;20268;-68
2023/07/18 11:45:28;;;;;;;7.23;3.67;;;14.30;51.20;;;;;;4973809;28;20194;-70
2023/07/18 11:47:57;;;;;;;6.10;3.30;;;14.30;52.00;;;;;;4987722;28;20189;-67
2023/07/18 11:50:28;;;;;;;9.90;2.93;;;14.30;52.50;;;;;;4990094;28;20276;-70
2023/07/18 11:52:58;;;;;;;4.83;3.00;;;14.40;51.00;;;;;;4991392;28;20660;-72
2023/07/18 11:55:26;;;;;;;5.97;2.90;;;14.40;50.10;;;;;;4991504;28;20221;-70
2023/07/18 11:57:54;;;;;;;7.13;3.13;;;14.50;50.10;;;;;;4992305;28;20178;-74
2023/07/18 12:00:21;;;;;;;7.07;2.80;;;14.50;48.90;;;;;;4991316;28;20240;-68
2023/07/18 12:02:49;;;;;;;4.30;2.70;;;14.60;48.40;;;;;;4989364;28;20193;-70
2023/07/18 12:05:16;;;;;;;9.20;3.10;;;14.70;48.50;;;;;;4989644;28;20249;-73
2023/07/18 12:07:45;;;;;;;9.03;3.33;;;14.80;47.70;;;;;;4987573;28;20244;-67
2023/07/18 12:10:15;;;;;;;5.73;2.93;;;14.80;47.80;;;;;;4987966;28;20218;-72
2023/07/18 12:12:43;;;;;;;5.47;2.80;;;14.80;47.40;;;;;;4992680;28;20530;-69
2023/07/18 12:15:12;;;;;;;7.97;3.20;;;14.80;47.50;;;;;;4983805;28;20294;-74
2023/07/18 12:17:40;;;;;;;4.87;3.07;;;14.80;47.80;;;;;;4988675;28;20607;-73
2023/07/18 12:20:09;;;;;;;5.63;2.83;;;14.70;47.50;;;;;;4992217;28;20178;-71
2023/07/18 12:22:38;;;;;;;4.93;2.53;;;14.70;47.50;;;;;;4992569;28;20191;-73
2023/07/18 12:25:06;;;;;;;3.67;2.40;;;14.70;47.80;;;;;;4989351;28;20165;-72
2023/07/18 12:27:33;;;;;;;5.13;2.30;;;14.70;48.10;;;;;;4991923;28;20510;-71
2023/07/18 12:30:00;;;;;;;4.93;2.53;;;14.70;48.40;;;;;;4985065;28;21973;-73
2023/07/18 12:32:28;;;;;;;3.87;2.27;;;14.70;49.00;;;;;;4990928;28;20244;-72
2023/07/18 12:34:55;;;;;;;2.57;2.30;;;14.70;49.40;;;;;;4988379;28;20695;-71
2023/07/18 12:37:23;;;;;;;4.33;2.50;;;14.60;49.90;;;;;;4991704;28;20189;-65
2023/07/18 12:39:50;;;;;;;4.20;2.20;;;14.50;50.40;;;;;;4988061;28;20281;-66
2023/07/18 12:42:17;;;;;;;4.73;2.60;;;14.40;51.10;;;;;;4986197;28;20191;-66
2023/07/18 12:44:46;;;;;;;4.03;2.40;;;14.30;52.00;;;;;;4990068;28;20608;-65
2023/07/18 12:47:13;;;;;;;4.57;2.43;;;14.30;52.40;;;;;;4969079;28;20190;-72
2023/07/18 12:49:42;;;;;;;3.67;2.27;;;14.30;53.20;;;;;;4983523;28;20255;-75
2023/07/18 12:52:09;;;;;;;3.80;2.40;;;14.20;53.30;;;;;;4991945;28;20213;-66
2023/07/18 12:54:36;;;;;;;4.70;2.30;;;14.10;53.30;;;;;;4990305;28;20690;-65